createdAt,value
2019-05-10T00:03:12.013Z,59.62
2019-05-10T00:08:32.725Z,59.73
2019-05-10T00:13:37.290Z,60.16
2019-05-10T00:18:39.659Z,60.53
2019-05-10T00:23:41.772Z,61.00
2019-05-10T00:28:44.131Z,61.08
2019-05-10T00:33:46.180Z,61.42
2019-05-10T00:38:48.140Z,61.94
2019-05-10T00:43:50.311Z,62.11
2019-05-10T00:48:52.263Z,62.26
2019-05-10T00:53:54.705Z,62.51
2019-05-10T00:58:56.802Z,62.76
2019-05-10T01:03:58.864Z,63.21
2019-05-10T01:09:01.037Z,63.22
2019-05-10T01:14:04.459Z,63.35
2019-05-10T01:19:06.553Z,63.20
2019-05-10T01:24:08.742Z,63.43
2019-05-10T01:29:11.038Z,63.46
2019-05-10T01:34:16.374Z,63.41
2019-05-10T01:39:18.399Z,63.46
2019-05-10T01:44:20.466Z,63.57
2019-05-10T01:49:22.561Z,63.37
2019-05-10T01:54:24.843Z,64.14
2019-05-10T01:59:26.908Z,63.80
2019-05-10T02:04:29.471Z,64.07
2019-05-10T02:09:33.329Z,64.25
2019-05-10T02:14:35.565Z,65.12
2019-05-10T02:19:37.831Z,65.12
2019-05-10T02:24:40.135Z,65.35
2019-05-10T02:29:43.231Z,64.97
2019-05-10T02:34:45.239Z,65.18
2019-05-10T02:39:47.314Z,65.01
2019-05-10T02:44:49.572Z,65.03
2019-05-10T02:49:51.656Z,65.11
2019-05-10T02:54:54.294Z,64.94
2019-05-10T02:59:57.547Z,65.12
2019-05-10T03:04:59.656Z,65.17
2019-05-10T03:10:18.794Z,64.89
2019-05-10T03:15:20.886Z,64.95
2019-05-10T03:20:23.563Z,65.34
2019-05-10T03:25:26.483Z,65.55
2019-05-10T03:30:30.794Z,65.55
2019-05-10T03:35:32.740Z,65.55
2019-05-10T03:40:35.090Z,66.00
2019-05-10T03:45:37.121Z,66.46
2019-05-10T03:50:39.179Z,66.04
2019-05-10T03:55:43.005Z,66.06
2019-05-10T04:00:45.426Z,65.67
2019-05-10T04:05:47.539Z,65.74
2019-05-10T04:10:51.686Z,65.72
2019-05-10T04:15:56.532Z,65.83
2019-05-10T04:20:58.691Z,65.95
2019-05-10T04:26:00.910Z,66.01
2019-05-10T04:31:03.172Z,66.20
2019-05-10T04:36:05.149Z,66.27
2019-05-10T04:41:07.268Z,66.06
2019-05-10T04:46:09.269Z,66.37
2019-05-10T04:51:11.409Z,66.30
2019-05-10T04:56:14.573Z,66.26
2019-05-10T05:01:16.817Z,66.26
2019-05-10T05:06:18.998Z,65.98
2019-05-10T05:11:21.086Z,66.18
2019-05-10T05:16:23.048Z,66.48
2019-05-10T05:21:25.022Z,66.48
2019-05-10T05:26:26.998Z,66.21
2019-05-10T05:31:29.129Z,65.97
2019-05-10T05:36:31.331Z,65.80
2019-05-10T05:41:47.759Z,65.59
2019-05-10T05:47:11.951Z,65.72
2019-05-10T05:52:14.936Z,65.71
2019-05-10T05:57:16.994Z,65.47
2019-05-10T06:02:19.249Z,65.19
2019-05-10T06:07:21.324Z,64.94
2019-05-10T06:12:23.526Z,64.77
2019-05-10T06:17:29.352Z,64.62
2019-05-10T06:22:29.637Z,64.40
2019-05-10T06:27:35.430Z,64.50
2019-05-10T06:32:36.975Z,64.26
2019-05-10T06:37:39.054Z,63.93
2019-05-10T06:42:42.780Z,63.71
2019-05-10T06:47:47.933Z,63.74
2019-05-10T06:52:52.428Z,63.80
2019-05-10T06:58:00.462Z,63.33
2019-05-10T07:03:01.402Z,63.19
2019-05-10T07:08:14.022Z,62.85
2019-05-10T07:13:07.832Z,61.73
2019-05-10T07:18:09.950Z,61.84
2019-05-10T07:23:11.937Z,61.58
2019-05-10T07:28:17.686Z,61.53
2019-05-10T07:33:19.161Z,60.82
2019-05-10T07:38:23.745Z,60.09
2019-05-10T07:43:28.733Z,59.51
2019-05-10T07:48:29.384Z,59.10
2019-05-10T07:53:31.500Z,58.44
2019-05-10T07:58:38.222Z,57.92
2019-05-10T08:03:44.252Z,56.27
2019-05-10T08:08:43.846Z,56.29
2019-05-10T08:13:48.460Z,56.12
2019-05-10T08:18:50.144Z,56.06
2019-05-10T08:23:54.074Z,55.55
2019-05-10T08:28:56.479Z,56.26
2019-05-10T08:33:59.199Z,54.13
2019-05-10T08:39:09.609Z,53.94
2019-05-10T08:44:16.711Z,53.47
2019-05-10T08:49:12.963Z,53.08
2019-05-10T08:54:14.984Z,53.42
2019-05-10T08:59:23.596Z,51.71
2019-05-10T09:04:22.241Z,52.45
2019-05-10T09:09:24.488Z,52.10
2019-05-10T09:14:26.463Z,51.49
2019-05-10T09:19:37.221Z,51.26
2019-05-10T09:24:34.943Z,50.57
2019-05-10T09:29:37.495Z,50.19
2019-05-10T09:34:42.437Z,49.81
2019-05-10T09:39:44.161Z,49.22
2019-05-10T09:44:47.864Z,48.75
2019-05-10T09:49:58.503Z,48.84
2019-05-10T09:54:57.005Z,49.10
2019-05-10T09:59:59.267Z,49.83
2019-05-10T10:05:01.324Z,49.60
2019-05-10T10:10:07.256Z,48.88
2019-05-10T10:15:11.897Z,48.93
2019-05-10T10:20:13.288Z,47.86
2019-05-10T10:25:17.571Z,48.47
2019-05-10T10:30:21.550Z,48.55
2019-05-10T10:35:27.672Z,47.91
2019-05-10T10:40:28.138Z,47.40
2019-05-10T10:45:30.320Z,46.46
2019-05-10T10:50:32.524Z,47.36
2019-05-10T10:55:39.401Z,46.60
2019-05-10T11:00:39.850Z,46.33
2019-05-10T11:05:42.134Z,45.82
2019-05-10T11:10:46.176Z,45.41
2019-05-10T11:15:48.322Z,46.26
2019-05-10T11:20:53.921Z,45.93
2019-05-10T11:25:56.462Z,45.17
2019-05-10T11:31:00.836Z,43.88
2019-05-10T11:36:07.033Z,43.32
2019-05-10T11:41:11.645Z,43.16
2019-05-10T11:46:11.777Z,42.60
2019-05-10T11:51:17.277Z,42.90
2019-05-10T11:56:25.077Z,42.91
2019-05-10T12:01:22.735Z,42.75
2019-05-10T12:06:24.957Z,42.70
2019-05-10T12:11:33.221Z,42.22
2019-05-10T12:16:33.274Z,43.17
2019-05-10T12:21:35.227Z,42.50
2019-05-10T12:31:41.601Z,41.73
2019-05-10T12:36:45.864Z,41.51
2019-05-10T12:41:49.966Z,41.98
2019-05-10T12:46:54.309Z,43.37
2019-05-10T14:38:23.821Z,40.40
2019-05-10T14:43:25.956Z,42.38
2019-05-10T14:48:30.577Z,42.22
2019-05-10T14:53:33.929Z,42.48
2019-05-10T14:58:35.935Z,42.48
2019-05-10T15:03:45.288Z,42.43
2019-05-10T15:08:42.016Z,42.45
2019-05-10T15:13:44.262Z,42.39
2019-05-10T15:18:46.468Z,42.12
2019-05-10T15:23:48.757Z,44.22
2019-05-10T16:35:23.103Z,43.87
2019-05-10T16:40:25.474Z,46.70
2019-05-10T16:50:55.334Z,49.01
2019-05-10T16:55:57.459Z,49.59
2019-05-10T17:00:59.745Z,51.55
2019-05-10T17:06:04.214Z,53.09
2019-05-10T17:11:10.121Z,54.57
2019-05-10T17:16:11.609Z,54.92
2019-05-10T17:21:14.205Z,54.57
2019-05-10T17:26:16.291Z,54.93
2019-05-10T17:31:18.452Z,55.07
2019-05-10T17:36:21.553Z,55.59
2019-05-10T17:41:42.246Z,56.36
2019-05-10T17:47:03.003Z,57.02
2019-05-10T17:52:23.653Z,57.56
2019-05-10T17:57:48.544Z,57.72
2019-05-10T18:03:06.859Z,57.79
2019-05-10T18:08:27.399Z,57.66
2019-05-10T18:13:48.178Z,57.57
2019-05-10T18:19:08.616Z,57.51
2019-05-10T18:24:36.366Z,57.11
2019-05-10T18:34:18.454Z,56.57
2019-05-10T18:39:20.389Z,56.76
2019-05-10T18:49:21.913Z,56.78
2019-05-10T18:54:24.014Z,57.13
2019-05-10T18:59:26.206Z,57.12
2019-05-10T19:04:29.821Z,56.94
2019-05-10T19:09:32.007Z,56.84
2019-05-10T19:14:33.993Z,56.59
2019-05-10T19:19:41.505Z,56.31
2019-05-10T19:24:40.005Z,56.65
2019-05-10T19:29:45.568Z,57.38
2019-05-10T19:40:07.867Z,57.47
2019-05-10T19:45:12.948Z,57.58
2019-05-10T19:50:14.300Z,57.30
2019-05-10T19:55:19.278Z,57.60
2019-05-10T20:00:21.107Z,57.65
2019-05-10T20:05:24.463Z,57.42
2019-05-10T20:10:27.264Z,57.06
2019-05-10T20:15:29.594Z,56.89
2019-05-10T20:20:31.800Z,56.86
2019-05-10T20:31:34.291Z,57.08
2019-05-10T20:36:38.479Z,58.14
2019-05-10T20:41:40.873Z,58.86
2019-05-10T20:46:42.969Z,58.94
2019-05-10T20:51:45.187Z,59.27
2019-05-10T20:56:47.330Z,59.68
2019-05-10T21:01:49.408Z,59.93
2019-05-10T21:06:51.468Z,59.26
2019-05-10T21:11:53.619Z,59.49
2019-05-10T21:16:55.824Z,59.35
2019-05-10T21:21:57.881Z,59.74
2019-05-10T21:26:59.946Z,60.10
2019-05-10T21:37:14.626Z,59.46
2019-05-10T21:42:16.677Z,60.10
2019-05-10T21:47:18.699Z,59.87
2019-05-10T21:52:20.808Z,59.49
2019-05-10T21:57:22.790Z,59.92
2019-05-10T22:02:25.028Z,60.32
2019-05-10T22:07:27.194Z,60.25
2019-05-10T22:12:29.340Z,60.63
2019-05-10T22:17:31.441Z,59.98
2019-05-10T22:22:33.577Z,60.14
2019-05-10T22:27:36.572Z,60.08
2019-05-10T22:32:38.796Z,60.31
2019-05-10T22:37:40.960Z,59.89
2019-05-10T22:42:43.014Z,60.28
2019-05-10T22:47:45.188Z,60.55
2019-05-10T22:52:47.276Z,61.22
2019-05-10T22:57:49.426Z,61.97
2019-05-10T23:02:51.508Z,62.26
2019-05-10T23:07:53.756Z,62.00
2019-05-10T23:12:55.992Z,62.36
2019-05-10T23:17:58.180Z,62.64
2019-05-10T23:23:00.203Z,62.55
2019-05-10T23:28:02.223Z,62.68
2019-05-10T23:38:38.008Z,62.09
2019-05-10T23:43:40.081Z,62.80
2019-05-10T23:48:42.225Z,62.51
2019-05-10T23:53:44.364Z,62.97
2019-05-10T23:58:46.377Z,62.86
